createdAt,value
2022-11-16T00:02:13.842Z,62.20
2022-11-16T00:04:40.817Z,75.53
2022-11-16T00:07:07.737Z,71.97
2022-11-16T00:09:34.417Z,81.30
2022-11-16T00:12:04.351Z,70.63
2022-11-16T00:14:33.697Z,81.05
2022-11-16T00:17:01.425Z,83.63
2022-11-16T00:19:29.277Z,72.45
2022-11-16T00:21:56.048Z,78.88
2022-11-16T00:24:23.960Z,78.30
2022-11-16T00:26:52.957Z,77.32
2022-11-16T00:29:22.734Z,78.95
2022-11-16T00:31:50.246Z,73.82
2022-11-16T00:34:17.028Z,82.35
2022-11-16T00:36:44.440Z,81.22
2022-11-16T00:39:15.637Z,74.57
2022-11-16T00:41:42.747Z,73.05
2022-11-16T00:44:10.465Z,79.25
2022-11-16T00:46:37.215Z,71.60
2022-11-16T00:49:05.616Z,75.50
2022-11-16T00:51:33.444Z,77.28
2022-11-16T00:54:00.274Z,73.80
2022-11-16T00:56:26.862Z,65.05
2022-11-16T00:58:53.495Z,63.65
2022-11-16T01:01:20.150Z,58.53
2022-11-16T01:03:47.862Z,59.97
2022-11-16T01:06:15.667Z,69.22
2022-11-16T01:08:43.927Z,55.58
2022-11-16T01:11:32.514Z,58.05
2022-11-16T01:13:59.151Z,75.30
2022-11-16T01:16:25.784Z,75.32
2022-11-16T01:18:54.335Z,79.32
2022-11-16T01:21:22.553Z,72.82
2022-11-16T01:23:49.345Z,48.08
2022-11-16T01:26:16.118Z,70.45
2022-11-16T01:28:42.924Z,72.30
2022-11-16T01:31:11.087Z,63.50
2022-11-16T01:33:37.945Z,68.35
2022-11-16T01:36:14.688Z,75.78
2022-11-16T01:38:46.391Z,60.97
2022-11-16T01:41:20.300Z,59.10
2022-11-16T01:43:59.498Z,60.80
2022-11-16T01:46:27.085Z,66.55
2022-11-16T01:49:07.091Z,57.33
2022-11-16T01:51:34.801Z,62.00
2022-11-16T01:54:05.916Z,57.13
2022-11-16T01:56:36.007Z,57.95
2022-11-16T01:59:03.212Z,68.97
2022-11-16T02:01:29.812Z,70.07
2022-11-16T02:03:56.581Z,75.20
2022-11-16T02:06:26.157Z,76.32
2022-11-16T02:09:17.698Z,64.93
2022-11-16T02:11:50.404Z,69.35
2022-11-16T02:14:45.975Z,64.68
2022-11-16T02:17:43.331Z,64.95
2022-11-16T02:20:31.671Z,64.20
2022-11-16T02:23:23.046Z,65.70
2022-11-16T02:26:04.757Z,66.82
2022-11-16T02:28:54.541Z,56.78
2022-11-16T02:31:27.426Z,57.40
2022-11-16T02:33:57.025Z,58.15
2022-11-16T02:36:25.122Z,58.10
2022-11-16T02:38:58.291Z,64.57
2022-11-16T02:41:31.450Z,65.40
2022-11-16T02:44:05.786Z,64.43
2022-11-16T02:46:37.944Z,59.58
2022-11-16T02:49:11.169Z,69.78
2022-11-16T02:51:40.076Z,64.35
2022-11-16T02:54:21.195Z,73.20
2022-11-16T02:56:53.530Z,76.47
2022-11-16T02:59:21.255Z,64.75
2022-11-16T03:02:18.563Z,65.28
2022-11-16T03:04:52.280Z,69.22
2022-11-16T03:07:25.844Z,68.43
2022-11-16T03:09:55.704Z,73.43
2022-11-16T03:12:27.125Z,73.97
2022-11-16T03:14:57.720Z,78.13
2022-11-16T03:17:54.372Z,72.55
2022-11-16T03:20:27.992Z,73.80
2022-11-16T03:22:59.197Z,68.60
2022-11-16T03:25:31.730Z,81.07
2022-11-16T03:28:13.609Z,71.90
2022-11-16T03:30:51.464Z,67.35
2022-11-16T03:33:30.704Z,68.35
2022-11-16T03:36:01.644Z,70.80
2022-11-16T03:38:29.025Z,66.10
2022-11-16T03:41:00.354Z,59.22
2022-11-16T03:43:28.419Z,73.40
2022-11-16T03:45:55.521Z,66.30
2022-11-16T03:48:22.169Z,72.32
2022-11-16T03:50:49.564Z,76.28
2022-11-16T03:53:16.128Z,64.43
2022-11-16T03:55:48.474Z,76.05
2022-11-16T03:58:18.726Z,82.07
2022-11-16T04:00:45.782Z,71.13
2022-11-16T04:03:12.463Z,69.35
2022-11-16T04:05:57.734Z,77.45
2022-11-16T04:08:43.134Z,85.53
2022-11-16T04:11:32.048Z,71.88
2022-11-16T04:14:17.186Z,63.03
2022-11-16T04:17:02.764Z,77.30
2022-11-16T04:19:48.201Z,64.60
2022-11-16T04:22:42.622Z,63.95
2022-11-16T04:25:14.286Z,73.10
2022-11-16T04:27:59.665Z,72.38
2022-11-16T04:30:46.626Z,67.35
2022-11-16T04:33:31.821Z,50.60
2022-11-16T04:36:20.602Z,65.05
2022-11-16T04:38:47.497Z,73.70
2022-11-16T04:41:35.876Z,75.30
2022-11-16T04:44:02.453Z,68.47
2022-11-16T04:46:47.383Z,58.55
2022-11-16T04:49:14.027Z,69.60
2022-11-16T04:51:40.629Z,69.38
2022-11-16T04:54:07.187Z,64.82
2022-11-16T04:56:33.832Z,56.42
2022-11-16T04:59:00.503Z,66.43
2022-11-16T05:01:45.886Z,82.43
2022-11-16T05:04:12.526Z,63.85
2022-11-16T05:06:39.157Z,62.20
2022-11-16T05:09:05.891Z,70.25
2022-11-16T05:11:32.532Z,83.13
2022-11-16T05:13:59.276Z,73.75
2022-11-16T05:16:25.972Z,79.50
2022-11-16T05:19:11.316Z,82.45
2022-11-16T05:21:37.968Z,86.25
2022-11-16T05:24:23.499Z,73.70
2022-11-16T05:26:50.092Z,79.15
2022-11-16T05:29:16.698Z,53.50
2022-11-16T05:31:43.221Z,70.88
2022-11-16T05:34:10.248Z,72.80
2022-11-16T05:36:37.189Z,74.22
2022-11-16T05:39:04.631Z,73.60
2022-11-16T05:41:31.333Z,76.78
2022-11-16T05:43:58.102Z,79.60
2022-11-16T05:46:25.322Z,70.32
2022-11-16T05:48:51.908Z,74.72
2022-11-16T05:51:18.563Z,76.90
2022-11-16T05:53:45.234Z,84.00
2022-11-16T05:56:14.419Z,69.72
2022-11-16T05:58:41.938Z,96.38
2022-11-16T06:01:08.714Z,86.65
2022-11-16T06:03:36.462Z,73.82
2022-11-16T06:06:05.194Z,79.80
2022-11-16T06:08:32.296Z,75.18
2022-11-16T06:11:07.691Z,70.75
2022-11-16T06:13:34.500Z,65.22
2022-11-16T06:16:02.453Z,73.90
2022-11-16T06:18:29.649Z,71.00
2022-11-16T06:20:56.391Z,61.30
2022-11-16T06:23:23.318Z,64.63
2022-11-16T06:25:55.136Z,85.75
2022-11-16T06:28:22.552Z,62.55
2022-11-16T06:30:49.785Z,61.70
2022-11-16T06:33:17.239Z,60.20
2022-11-16T06:35:44.543Z,67.38
2022-11-16T06:38:13.762Z,54.35
2022-11-16T06:40:40.349Z,54.00
2022-11-16T06:43:06.997Z,51.60
2022-11-16T06:45:33.625Z,60.38
2022-11-16T06:48:00.299Z,54.00
2022-11-16T06:50:27.000Z,54.63
2022-11-16T06:52:54.131Z,55.50
2022-11-16T06:55:20.861Z,57.80
2022-11-16T06:57:48.739Z,62.08
2022-11-16T07:00:16.001Z,50.40
2022-11-16T07:02:42.547Z,62.75
2022-11-16T07:05:09.348Z,45.95
2022-11-16T07:07:36.246Z,40.20
2022-11-16T07:10:03.799Z,50.15
2022-11-16T07:12:30.490Z,48.92
2022-11-16T07:14:57.066Z,58.97
2022-11-16T07:17:23.755Z,58.95
2022-11-16T07:19:50.328Z,57.88
2022-11-16T07:22:16.944Z,58.28
2022-11-16T07:24:43.659Z,59.40
2022-11-16T07:27:10.327Z,58.03
2022-11-16T07:29:37.035Z,59.20
2022-11-16T07:32:03.739Z,60.38
2022-11-16T07:34:30.356Z,59.75
2022-11-16T07:36:57.091Z,63.25
2022-11-16T07:39:23.714Z,56.03
2022-11-16T07:41:53.140Z,49.63
2022-11-16T07:44:20.776Z,53.50
2022-11-16T07:46:48.421Z,62.67
2022-11-16T07:49:17.128Z,52.22
2022-11-16T07:51:44.390Z,58.60
2022-11-16T07:54:12.929Z,59.72
2022-11-16T07:56:39.559Z,64.65
2022-11-16T07:59:06.602Z,67.93
2022-11-16T08:01:35.775Z,56.80
2022-11-16T08:04:02.813Z,58.50
2022-11-16T08:06:31.613Z,55.58
2022-11-16T08:08:59.130Z,49.38
2022-11-16T08:11:26.562Z,53.60
2022-11-16T08:13:53.397Z,56.08
2022-11-16T08:16:22.351Z,54.45
2022-11-16T08:18:49.426Z,46.63
2022-11-16T08:21:18.814Z,45.38
2022-11-16T08:23:46.033Z,44.28
2022-11-16T08:26:18.289Z,47.35
2022-11-16T08:28:46.792Z,54.00
2022-11-16T08:31:24.829Z,67.25
2022-11-16T08:33:52.361Z,78.63
2022-11-16T08:36:19.642Z,67.85
2022-11-16T08:38:48.233Z,64.10
2022-11-16T08:41:16.005Z,60.50
2022-11-16T08:43:44.545Z,65.45
2022-11-16T08:46:11.684Z,77.47
2022-11-16T08:48:38.307Z,67.65
2022-11-16T08:51:22.247Z,82.32
2022-11-16T08:53:50.056Z,83.30
2022-11-16T08:56:18.502Z,68.28
2022-11-16T08:58:47.373Z,74.35
2022-11-16T09:01:16.994Z,79.32
2022-11-16T09:03:44.419Z,78.35
2022-11-16T09:06:12.021Z,79.63
2022-11-16T09:08:40.684Z,88.45
2022-11-16T09:11:09.487Z,79.78
2022-11-16T09:13:36.631Z,73.65
2022-11-16T09:16:04.820Z,68.32
2022-11-16T09:18:32.261Z,78.60
2022-11-16T09:20:59.553Z,77.10
2022-11-16T09:23:26.138Z,95.95
2022-11-16T09:25:54.602Z,82.57
2022-11-16T09:28:22.278Z,78.13
2022-11-16T09:30:51.276Z,79.75
2022-11-16T09:33:17.922Z,82.10
2022-11-16T09:35:44.748Z,80.93
2022-11-16T09:38:16.004Z,75.10
2022-11-16T09:40:47.514Z,57.03
2022-11-16T09:43:14.081Z,69.95
2022-11-16T09:45:56.417Z,47.55
2022-11-16T09:48:24.249Z,58.17
2022-11-16T09:50:57.635Z,58.90
2022-11-16T09:53:33.130Z,64.88
2022-11-16T09:56:04.936Z,68.95
2022-11-16T09:58:42.112Z,72.57
2022-11-16T10:01:28.600Z,71.82
2022-11-16T10:04:23.571Z,72.78
2022-11-16T10:06:58.679Z,77.32
2022-11-16T10:09:25.932Z,76.35
2022-11-16T10:12:01.744Z,67.57
2022-11-16T10:14:46.298Z,51.33
2022-11-16T10:17:51.216Z,49.28
2022-11-16T10:20:42.656Z,56.70
2022-11-16T10:23:20.132Z,87.15
2022-11-16T10:25:53.419Z,59.10
2022-11-16T10:28:41.574Z,74.57
2022-11-16T10:31:36.481Z,74.78
2022-11-16T10:34:08.274Z,65.80
2022-11-16T10:36:37.672Z,96.68
2022-11-16T10:39:15.077Z,112.57
2022-11-16T10:41:49.870Z,60.83
2022-11-16T10:44:43.989Z,55.92
2022-11-16T10:47:35.406Z,55.03
2022-11-16T10:50:26.187Z,56.38
2022-11-16T10:52:52.928Z,58.35
2022-11-16T10:55:22.109Z,83.40
2022-11-16T10:57:57.975Z,60.30
2022-11-16T11:00:52.621Z,60.05
2022-11-16T11:03:32.429Z,57.85
2022-11-16T11:05:59.798Z,64.97
2022-11-16T11:08:30.858Z,53.03
2022-11-16T11:11:25.441Z,60.60
2022-11-16T11:14:14.198Z,60.47
2022-11-16T11:16:41.586Z,63.50
2022-11-16T11:19:19.911Z,67.60
2022-11-16T11:21:47.518Z,62.92
2022-11-16T11:24:43.438Z,66.95
2022-11-16T11:27:04.665Z,64.75
2022-11-16T11:29:37.243Z,69.72
2022-11-16T11:32:13.604Z,60.20
2022-11-16T11:34:44.155Z,64.55
2022-11-16T11:37:22.330Z,66.82
2022-11-16T11:39:50.377Z,62.85
2022-11-16T11:42:16.922Z,69.30
2022-11-16T11:44:50.497Z,73.57
2022-11-16T11:47:56.768Z,68.37
2022-11-16T11:50:36.664Z,72.32
2022-11-16T11:53:11.739Z,65.68
2022-11-16T11:55:39.700Z,66.80
2022-11-16T11:58:11.184Z,62.78
2022-11-16T12:01:23.805Z,68.75
2022-11-16T12:04:26.013Z,69.10
2022-11-16T12:07:05.212Z,77.38
2022-11-16T12:09:50.596Z,68.03
2022-11-16T12:12:41.798Z,63.85
2022-11-16T12:15:29.839Z,65.85
2022-11-16T12:18:20.895Z,61.15
2022-11-16T12:20:51.919Z,63.90
2022-11-16T12:23:30.041Z,74.97
2022-11-16T12:26:05.544Z,70.97
2022-11-16T12:28:56.242Z,78.97
2022-11-16T12:31:33.242Z,72.10
2022-11-16T12:34:18.431Z,83.13
2022-11-16T12:36:54.946Z,81.45
2022-11-16T12:39:28.709Z,87.90
2022-11-16T12:42:09.420Z,91.38
2022-11-16T12:44:51.262Z,88.63
2022-11-16T12:47:35.781Z,86.00
2022-11-16T12:50:50.494Z,88.63
2022-11-16T12:53:19.820Z,74.80
2022-11-16T12:56:04.380Z,80.75
2022-11-16T12:59:05.273Z,81.88
2022-11-16T13:02:06.929Z,78.15
2022-11-16T13:04:51.972Z,82.15
2022-11-16T13:07:27.449Z,78.68
2022-11-16T13:10:02.982Z,83.93
2022-11-16T13:12:30.972Z,78.00
2022-11-16T13:15:01.956Z,79.18
2022-11-16T13:17:37.693Z,82.70
2022-11-16T13:20:22.150Z,85.55
2022-11-16T13:23:15.577Z,74.22
2022-11-16T13:25:55.319Z,65.55
2022-11-16T13:28:46.602Z,87.78
2022-11-16T13:31:30.032Z,85.35
2022-11-16T13:34:13.114Z,73.85
2022-11-16T13:36:45.147Z,82.05
2022-11-16T13:39:22.664Z,78.80
2022-11-16T13:41:59.775Z,88.35
2022-11-16T13:44:29.055Z,93.00
2022-11-16T13:47:04.652Z,86.50
2022-11-16T13:49:34.504Z,80.10
2022-11-16T13:52:54.062Z,75.03
2022-11-16T13:55:31.127Z,81.85
2022-11-16T13:58:00.378Z,72.50
2022-11-16T14:00:37.886Z,70.68
2022-11-16T14:03:10.398Z,76.60
2022-11-16T14:05:42.441Z,85.32
2022-11-16T14:08:24.206Z,85.25
2022-11-16T14:10:50.875Z,67.22
2022-11-16T14:13:40.332Z,80.97
2022-11-16T14:16:22.865Z,76.68
2022-11-16T14:19:00.964Z,81.03
2022-11-16T14:21:55.651Z,73.18
2022-11-16T14:24:40.645Z,85.53
2022-11-16T14:27:16.130Z,78.90
2022-11-16T14:30:08.080Z,61.47
2022-11-16T14:32:42.516Z,77.25
2022-11-16T14:35:42.061Z,76.03
2022-11-16T14:38:26.902Z,76.07
2022-11-16T14:40:59.348Z,63.95
2022-11-16T14:43:44.624Z,61.75
2022-11-16T14:46:23.542Z,71.80
2022-11-16T14:48:50.653Z,59.47
2022-11-16T14:51:33.025Z,56.33
2022-11-16T14:54:04.436Z,59.35
2022-11-16T14:56:31.447Z,65.25
2022-11-16T14:59:02.272Z,80.20
2022-11-16T15:01:33.182Z,108.38
2022-11-16T15:04:04.435Z,92.22
2022-11-16T15:06:42.244Z,98.30
2022-11-16T15:09:16.917Z,111.68
2022-11-16T15:12:06.707Z,118.43
2022-11-16T15:14:37.365Z,90.93
2022-11-16T15:17:07.281Z,77.38
2022-11-16T15:19:34.084Z,83.00
2022-11-16T15:22:02.652Z,203.20
2022-11-16T15:24:34.065Z,107.90
2022-11-16T15:27:06.891Z,90.88
2022-11-16T15:29:33.581Z,100.30
2022-11-16T15:32:00.259Z,82.60
2022-11-16T15:34:26.911Z,89.65
2022-11-16T15:36:55.715Z,101.30
2022-11-16T15:39:27.632Z,97.82
2022-11-16T15:42:00.428Z,91.00
2022-11-16T15:44:31.390Z,99.22
2022-11-16T15:46:58.898Z,100.25
2022-11-16T15:49:33.616Z,94.40
2022-11-16T15:52:01.069Z,96.43
2022-11-16T15:54:30.324Z,100.40
2022-11-16T15:57:08.095Z,107.20
2022-11-16T15:59:36.810Z,88.38
2022-11-16T16:02:04.379Z,87.63
2022-11-16T16:04:31.352Z,102.90
2022-11-16T16:07:00.157Z,117.65
2022-11-16T16:09:34.719Z,119.05
2022-11-16T16:14:46.571Z,124.68
2022-11-16T16:17:25.720Z,108.38
2022-11-16T16:19:58.403Z,106.70
2022-11-16T16:22:28.142Z,98.32
2022-11-16T16:24:54.989Z,100.95
2022-11-16T16:27:24.167Z,142.02
2022-11-16T16:29:53.609Z,151.30
2022-11-16T16:32:31.552Z,156.15
2022-11-16T16:35:00.717Z,117.03
2022-11-16T16:37:30.664Z,96.63
2022-11-16T16:39:58.203Z,98.32
2022-11-16T16:42:25.162Z,100.95
2022-11-16T16:44:51.831Z,113.75
2022-11-16T16:47:22.027Z,113.70
2022-11-16T16:49:49.512Z,108.55
2022-11-16T16:52:16.673Z,146.68
2022-11-16T16:54:43.563Z,109.53
2022-11-16T16:57:14.968Z,110.53
2022-11-16T16:59:42.397Z,104.18
2022-11-16T17:02:13.103Z,98.07
2022-11-16T17:04:39.980Z,125.13
2022-11-16T17:07:06.650Z,105.03
2022-11-16T17:09:35.491Z,105.20
2022-11-16T17:12:02.222Z,90.15
2022-11-16T17:14:28.802Z,89.50
2022-11-16T17:16:55.626Z,122.65
2022-11-16T17:19:22.271Z,116.32
2022-11-16T17:21:50.769Z,96.30
2022-11-16T17:24:17.467Z,100.65
2022-11-16T17:26:48.312Z,94.78
2022-11-16T17:29:15.444Z,114.57
2022-11-16T17:31:44.171Z,112.80
2022-11-16T17:34:13.805Z,120.90
2022-11-16T17:36:41.496Z,129.57
2022-11-16T17:39:08.273Z,109.15
2022-11-16T17:41:35.009Z,115.63
2022-11-16T17:44:01.615Z,115.93
2022-11-16T17:46:29.077Z,130.90
2022-11-16T17:48:56.091Z,109.55
2022-11-16T17:51:24.947Z,116.55
2022-11-16T17:53:52.136Z,118.88
2022-11-16T17:56:21.265Z,130.02
2022-11-16T17:58:50.164Z,122.63
2022-11-16T18:01:17.136Z,113.70
2022-11-16T18:03:44.020Z,114.70
2022-11-16T18:06:16.999Z,124.85
2022-11-16T18:08:44.166Z,120.82
2022-11-16T18:11:10.964Z,131.65
2022-11-16T18:13:38.183Z,136.68
2022-11-16T18:16:11.309Z,122.50
2022-11-16T18:18:39.120Z,139.93
2022-11-16T18:21:07.362Z,150.90
2022-11-16T18:23:35.717Z,130.82
2022-11-16T18:26:08.338Z,122.03
2022-11-16T18:28:35.342Z,113.20
2022-11-16T18:31:04.038Z,117.32
2022-11-16T18:33:36.174Z,135.63
2022-11-16T18:36:05.044Z,109.78
2022-11-16T18:38:35.001Z,119.30
2022-11-16T18:41:13.858Z,120.25
2022-11-16T18:43:42.539Z,119.00
2022-11-16T18:46:09.228Z,96.18
2022-11-16T18:48:36.268Z,99.50
2022-11-16T18:51:04.824Z,116.85
2022-11-16T18:53:36.484Z,99.13
2022-11-16T18:56:03.461Z,104.70
2022-11-16T19:01:21.350Z,102.80
2022-11-16T19:03:48.327Z,98.80
2022-11-16T19:06:17.296Z,94.40
2022-11-16T19:08:47.808Z,111.32
2022-11-16T19:11:21.414Z,108.13
2022-11-16T19:13:56.294Z,112.38
2022-11-16T19:16:24.501Z,114.45
2022-11-16T19:18:51.419Z,98.35
2022-11-16T19:21:18.821Z,98.75
2022-11-16T19:23:51.144Z,111.47
2022-11-16T19:26:19.632Z,105.30
2022-11-16T19:28:47.857Z,109.30
2022-11-16T19:31:18.556Z,104.47
2022-11-16T19:33:46.026Z,99.72
2022-11-16T19:36:17.914Z,108.65
2022-11-16T19:38:46.128Z,108.50
2022-11-16T19:41:14.496Z,104.70
2022-11-16T19:43:41.862Z,98.07
2022-11-16T19:46:16.627Z,116.88
2022-11-16T19:48:44.849Z,100.25
2022-11-16T19:51:23.273Z,87.90
2022-11-16T19:53:49.941Z,82.53
2022-11-16T19:56:18.859Z,89.35
2022-11-16T19:58:46.213Z,105.47
2022-11-16T20:01:15.316Z,100.10
2022-11-16T20:03:42.352Z,134.45
2022-11-16T20:06:19.453Z,93.15
2022-11-16T20:08:58.560Z,86.43
2022-11-16T20:11:40.967Z,85.30
2022-11-16T20:14:10.450Z,86.00
2022-11-16T20:16:41.950Z,94.70
2022-11-16T20:19:10.040Z,136.38
2022-11-16T20:21:41.899Z,94.22
2022-11-16T20:24:11.901Z,92.00
2022-11-16T20:26:44.010Z,106.60
2022-11-16T20:29:12.157Z,89.57
2022-11-16T20:31:42.806Z,112.13
2022-11-16T20:34:14.010Z,105.38
2022-11-16T20:36:45.750Z,88.60
2022-11-16T20:39:20.346Z,89.45
2022-11-16T20:41:50.107Z,89.32
2022-11-16T20:44:21.007Z,86.75
2022-11-16T20:46:47.975Z,84.18
2022-11-16T20:49:15.211Z,82.68
2022-11-16T20:51:41.855Z,83.85
2022-11-16T20:54:08.627Z,88.93
2022-11-16T20:56:56.745Z,85.55
2022-11-16T20:59:23.358Z,98.82
2022-11-16T21:01:52.758Z,99.65
2022-11-16T21:04:20.725Z,83.53
2022-11-16T21:06:47.395Z,82.50
2022-11-16T21:09:22.720Z,101.78
2022-11-16T21:12:08.259Z,87.95
2022-11-16T21:14:34.859Z,84.15
2022-11-16T21:17:01.654Z,98.60
2022-11-16T21:19:28.360Z,114.20
2022-11-16T21:21:55.045Z,114.50
2022-11-16T21:24:24.730Z,96.13
2022-11-16T21:26:52.377Z,91.40
2022-11-16T21:29:22.279Z,96.13
2022-11-16T21:31:48.956Z,79.65
2022-11-16T21:34:15.576Z,73.82
2022-11-16T21:36:42.202Z,77.30
2022-11-16T21:39:08.801Z,90.57
2022-11-16T21:41:35.443Z,84.95
2022-11-16T21:44:02.067Z,95.82
2022-11-16T21:46:28.685Z,103.38
2022-11-16T21:48:56.618Z,102.45
2022-11-16T21:51:25.663Z,87.78
2022-11-16T21:53:52.632Z,93.45
2022-11-16T21:56:21.307Z,125.65
2022-11-16T21:58:49.968Z,95.10
2022-11-16T22:01:17.018Z,81.00
2022-11-16T22:03:44.789Z,101.25
2022-11-16T22:06:32.823Z,81.85
2022-11-16T22:09:00.159Z,94.85
2022-11-16T22:11:26.836Z,87.15
2022-11-16T22:13:53.470Z,79.85
2022-11-16T22:16:23.312Z,75.97
2022-11-16T22:18:50.332Z,85.95
2022-11-16T22:21:17.062Z,76.85
2022-11-16T22:23:43.632Z,90.32
2022-11-16T22:26:12.596Z,98.88
2022-11-16T22:28:39.560Z,87.90
2022-11-16T22:31:09.466Z,80.20
2022-11-16T22:33:36.423Z,83.38
2022-11-16T22:36:03.859Z,79.15
2022-11-16T22:38:30.525Z,75.97
2022-11-16T22:40:57.848Z,75.95
2022-11-16T22:43:27.261Z,80.60
2022-11-16T22:45:58.729Z,70.75
2022-11-16T22:48:39.147Z,72.63
2022-11-16T22:51:29.536Z,75.40
2022-11-16T22:54:04.362Z,80.40
2022-11-16T22:56:32.629Z,68.88
2022-11-16T22:59:01.178Z,71.18
2022-11-16T23:01:28.693Z,81.80
2022-11-16T23:03:56.022Z,78.10
2022-11-16T23:06:23.074Z,69.65
2022-11-16T23:08:49.803Z,76.35
2022-11-16T23:11:37.725Z,75.22
2022-11-16T23:14:24.882Z,80.72
2022-11-16T23:16:52.166Z,77.25
2022-11-16T23:19:38.854Z,75.45
2022-11-16T23:22:24.600Z,89.22
2022-11-16T23:25:10.274Z,81.50
2022-11-16T23:28:20.157Z,84.50
2022-11-16T23:30:46.761Z,78.80
2022-11-16T23:33:13.562Z,82.47
2022-11-16T23:35:40.152Z,77.28
2022-11-16T23:38:08.278Z,81.30
2022-11-16T23:40:39.648Z,74.80
2022-11-16T23:43:27.485Z,75.13
2022-11-16T23:45:54.075Z,71.82
2022-11-16T23:48:20.779Z,72.47
2022-11-16T23:50:47.503Z,72.60
2022-11-16T23:53:14.595Z,82.22
2022-11-16T23:55:41.267Z,83.05
2022-11-16T23:58:13.731Z,96.65
